createdAt,value
2023-04-16T00:00:44.877Z,0.02
2023-04-16T00:01:44.181Z,0.00
2023-04-16T00:02:44.532Z,0.00
2023-04-16T00:03:45.844Z,0.00
2023-04-16T00:04:45.050Z,0.00
2023-04-16T00:05:44.195Z,0.02
2023-04-16T00:06:44.468Z,0.01
2023-04-16T00:07:44.768Z,0.00
2023-04-16T00:08:43.992Z,0.00
2023-04-16T00:09:44.265Z,0.01
2023-04-16T00:10:44.620Z,0.02
2023-04-16T00:11:45.329Z,0.02
2023-04-16T00:12:44.106Z,0.02
2023-04-16T00:13:44.029Z,0.00
2023-04-16T00:14:44.289Z,0.00
2023-04-16T00:15:44.544Z,0.00
2023-04-16T00:16:44.777Z,0.01
2023-04-16T00:17:44.068Z,0.00
2023-04-16T00:18:44.365Z,0.00
2023-04-16T00:19:44.661Z,0.00
2023-04-16T00:20:43.874Z,0.00
2023-04-16T00:21:44.139Z,0.00
2023-04-16T00:22:44.439Z,0.00
2023-04-16T00:23:44.732Z,0.02
2023-04-16T00:24:43.922Z,0.00
2023-04-16T00:25:45.156Z,0.00
2023-04-16T00:26:44.428Z,0.00
2023-04-16T00:27:43.645Z,0.02
2023-04-16T00:28:43.970Z,0.02
2023-04-16T00:29:44.269Z,0.06
2023-04-16T00:30:44.513Z,0.00
2023-04-16T00:31:44.682Z,0.00
2023-04-16T00:32:44.970Z,0.02
2023-04-16T00:33:45.215Z,0.00
2023-04-16T00:34:44.588Z,0.00
2023-04-16T00:35:43.761Z,0.00
2023-04-16T00:36:44.094Z,0.00
2023-04-16T00:37:44.359Z,0.02
2023-04-16T00:38:43.603Z,0.02
2023-04-16T00:39:44.854Z,0.00
2023-04-16T00:40:44.187Z,0.02
2023-04-16T00:41:44.449Z,0.00
2023-04-16T00:42:43.712Z,0.00
2023-04-16T00:43:43.977Z,0.02
2023-04-16T00:44:44.268Z,0.01
2023-04-16T00:45:43.488Z,0.00
2023-04-16T00:46:43.924Z,0.00
2023-04-16T00:47:44.143Z,0.02
2023-04-16T00:48:44.365Z,0.00
2023-04-16T00:49:43.607Z,0.00
2023-04-16T00:50:43.877Z,0.00
2023-04-16T00:51:44.182Z,0.00
2023-04-16T00:52:43.447Z,0.00
2023-04-16T00:53:44.716Z,0.00
2023-04-16T00:54:44.028Z,0.02
2023-04-16T00:55:44.304Z,0.00
2023-04-16T00:56:43.601Z,0.02
2023-04-16T00:57:43.860Z,0.02
2023-04-16T00:58:45.060Z,0.00
2023-04-16T00:59:44.321Z,0.00
2023-04-16T01:00:43.692Z,0.00
2023-04-16T01:01:44.110Z,0.02
2023-04-16T01:02:43.352Z,0.00
2023-04-16T01:03:44.544Z,0.02
2023-04-16T01:04:43.872Z,0.00
2023-04-16T01:05:45.053Z,0.00
2023-04-16T01:06:44.327Z,0.00
2023-04-16T01:07:44.001Z,0.02
2023-04-16T01:08:43.894Z,0.04
2023-04-16T01:09:43.130Z,0.01
2023-04-16T01:10:44.351Z,0.00
2023-04-16T01:11:44.641Z,0.02
2023-04-16T01:12:43.956Z,0.00
2023-04-16T01:13:43.390Z,0.02
2023-04-16T01:14:43.567Z,0.00
2023-04-16T01:15:44.805Z,0.02
2023-04-16T01:17:43.403Z,0.00
2023-04-16T01:18:43.706Z,0.02
2023-04-16T01:19:43.928Z,0.00
2023-04-16T01:20:44.208Z,0.00
2023-04-16T01:21:44.542Z,0.02
2023-04-16T01:22:44.825Z,0.00
2023-04-16T01:23:43.091Z,0.00
2023-04-16T01:24:43.465Z,0.02
2023-04-16T01:25:43.686Z,0.02
2023-04-16T01:26:42.979Z,0.01
2023-04-16T01:27:44.209Z,0.00
2023-04-16T01:28:44.536Z,0.00
2023-04-16T01:29:43.803Z,0.00
2023-04-16T01:31:43.377Z,0.02
2023-04-16T01:32:43.669Z,0.00
2023-04-16T01:33:42.867Z,0.02
2023-04-16T01:34:44.107Z,0.02
2023-04-16T01:35:43.462Z,0.00
2023-04-16T01:36:43.718Z,0.00
2023-04-16T01:38:43.242Z,0.02
2023-04-16T01:39:43.517Z,0.00
2023-04-16T01:40:42.785Z,0.02
2023-04-16T01:41:43.168Z,0.00
2023-04-16T01:42:43.350Z,0.02
2023-04-16T01:43:43.609Z,0.00
2023-04-16T01:44:42.860Z,0.05
2023-04-16T01:45:43.154Z,0.00
2023-04-16T01:46:43.594Z,0.00
2023-04-16T01:47:42.711Z,0.00
2023-04-16T01:48:45.008Z,0.00
2023-04-16T01:49:43.204Z,0.00
2023-04-16T01:50:43.494Z,0.02
2023-04-16T01:51:42.705Z,0.00
2023-04-16T01:52:43.020Z,0.00
2023-04-16T01:53:43.277Z,0.00
2023-04-16T01:54:42.515Z,0.00
2023-04-16T01:55:42.788Z,0.00
2023-04-16T01:56:43.033Z,0.00
2023-04-16T01:57:43.373Z,0.00
2023-04-16T01:58:42.557Z,0.00
2023-04-16T01:59:42.831Z,0.00
2023-04-16T02:00:43.158Z,0.00
2023-04-16T02:01:43.376Z,0.02
2023-04-16T02:02:42.811Z,0.00
2023-04-16T02:03:43.051Z,0.00
2023-04-16T02:04:43.221Z,0.00
2023-04-16T02:05:42.407Z,0.00
2023-04-16T02:06:42.692Z,0.00
2023-04-16T02:07:43.007Z,0.00
2023-04-16T02:08:43.259Z,0.00
2023-04-16T02:09:42.464Z,0.01
2023-04-16T02:10:42.797Z,0.02
2023-04-16T02:11:42.997Z,0.01
2023-04-16T02:12:42.275Z,0.00
2023-04-16T02:13:42.591Z,0.00
2023-04-16T02:14:42.839Z,0.02
2023-04-16T02:15:43.066Z,0.02
2023-04-16T02:16:42.400Z,0.00
2023-04-16T02:17:42.606Z,0.02
2023-04-16T02:18:42.886Z,0.00
2023-04-16T02:19:43.152Z,0.00
2023-04-16T02:20:42.382Z,0.04
2023-04-16T02:21:42.720Z,0.00
2023-04-16T02:22:43.069Z,0.00
2023-04-16T02:23:42.217Z,0.00
2023-04-16T02:24:42.638Z,0.00
2023-04-16T02:25:42.886Z,0.02
2023-04-16T02:26:43.033Z,0.00
2023-04-16T02:27:42.373Z,0.00
2023-04-16T02:28:42.642Z,0.02
2023-04-16T02:29:42.875Z,0.00
2023-04-16T02:30:42.150Z,0.01
2023-04-16T02:31:43.453Z,0.00
2023-04-16T02:32:43.673Z,0.00
2023-04-16T02:33:42.917Z,0.00
2023-04-16T02:34:42.252Z,0.00
2023-04-16T02:35:42.668Z,0.02
2023-04-16T02:36:42.882Z,0.00
2023-04-16T02:37:42.096Z,0.00
2023-04-16T02:38:43.372Z,0.00
2023-04-16T02:39:42.671Z,0.02
2023-04-16T02:40:41.945Z,0.02
2023-04-16T02:41:42.266Z,0.00
2023-04-16T02:42:42.505Z,0.00
2023-04-16T02:43:42.844Z,0.00
2023-04-16T02:44:42.055Z,0.00
2023-04-16T02:45:42.379Z,0.02
2023-04-16T02:46:42.648Z,0.02
2023-04-16T02:47:41.930Z,0.00
2023-04-16T02:48:42.161Z,0.02
2023-04-16T02:49:42.428Z,0.02
2023-04-16T02:50:42.726Z,0.00
2023-04-16T02:51:41.968Z,0.00
2023-04-16T02:52:42.274Z,0.02
2023-04-16T02:53:42.512Z,0.00
2023-04-16T02:54:41.800Z,0.02
2023-04-16T02:55:42.063Z,0.00
2023-04-16T02:56:43.361Z,0.00
2023-04-16T02:57:42.744Z,0.02
2023-04-16T02:58:41.799Z,0.00
2023-04-16T02:59:42.061Z,0.01
2023-04-16T03:00:42.315Z,0.02
2023-04-16T03:01:42.687Z,0.00
2023-04-16T03:02:41.946Z,0.01
2023-04-16T03:03:42.184Z,0.00
2023-04-16T03:04:42.517Z,0.01
2023-04-16T03:05:41.726Z,0.02
2023-04-16T03:06:42.024Z,0.02
2023-04-16T03:07:42.353Z,0.00
2023-04-16T03:08:41.552Z,0.00
2023-04-16T03:09:42.473Z,0.02
2023-04-16T03:10:42.128Z,0.00
2023-04-16T03:11:42.389Z,0.01
2023-04-16T03:12:41.608Z,0.02
2023-04-16T03:13:41.965Z,0.01
2023-04-16T03:14:42.188Z,0.00
2023-04-16T03:15:41.459Z,0.00
2023-04-16T03:16:41.742Z,0.00
2023-04-16T03:17:42.031Z,0.00
2023-04-16T03:18:42.276Z,0.00
2023-04-16T03:19:41.562Z,0.02
2023-04-16T03:20:41.784Z,0.00
2023-04-16T03:21:43.019Z,0.02
2023-04-16T03:22:43.299Z,0.00
2023-04-16T03:23:42.512Z,0.02
2023-04-16T03:24:41.874Z,0.00
2023-04-16T03:25:42.098Z,0.02
2023-04-16T03:26:41.356Z,0.00
2023-04-16T03:27:41.615Z,0.02
2023-04-16T03:28:41.964Z,0.00
2023-04-16T03:29:42.157Z,0.00
2023-04-16T03:30:41.395Z,0.00
2023-04-16T03:31:41.737Z,0.00
2023-04-16T03:32:41.961Z,0.00
2023-04-16T03:33:41.183Z,0.00
2023-04-16T03:34:41.470Z,0.00
2023-04-16T03:35:41.724Z,0.00
2023-04-16T03:36:42.069Z,0.02
2023-04-16T03:37:41.261Z,0.00
2023-04-16T03:38:41.494Z,0.02
2023-04-16T03:39:41.750Z,0.00
2023-04-16T03:40:42.014Z,0.02
2023-04-16T03:41:41.249Z,0.00
2023-04-16T03:42:41.484Z,0.02
2023-04-16T03:43:41.775Z,0.02
2023-04-16T03:44:41.008Z,0.00
2023-04-16T03:45:41.340Z,0.02
2023-04-16T03:46:41.609Z,0.01
2023-04-16T03:47:41.874Z,0.00
2023-04-16T03:48:41.082Z,0.00
2023-04-16T03:49:41.330Z,0.00
2023-04-16T03:50:41.640Z,0.02
2023-04-16T03:51:41.918Z,0.02
2023-04-16T03:52:41.147Z,0.02
2023-04-16T03:53:41.451Z,0.00
2023-04-16T03:54:41.698Z,0.00
2023-04-16T03:55:40.940Z,0.00
2023-04-16T03:56:41.305Z,0.00
2023-04-16T03:57:41.467Z,0.01
2023-04-16T03:58:41.755Z,0.00
2023-04-16T03:59:40.988Z,0.01
2023-04-16T04:00:42.230Z,0.01
2023-04-16T04:01:41.934Z,0.01
2023-04-16T04:02:40.927Z,0.01
2023-04-16T04:03:41.311Z,0.01
2023-04-16T04:04:41.438Z,0.03
2023-04-16T04:05:41.591Z,0.05
2023-04-16T04:06:40.865Z,0.03
2023-04-16T04:07:41.191Z,0.03
2023-04-16T04:08:41.415Z,0.03
2023-04-16T04:09:40.670Z,0.03
2023-04-16T04:10:40.969Z,0.04
2023-04-16T04:11:41.218Z,0.05
2023-04-16T04:12:41.921Z,0.29
2023-04-16T04:13:40.773Z,0.12
2023-04-16T04:14:41.074Z,0.11
2023-04-16T04:15:41.381Z,0.09
2023-04-16T04:16:40.806Z,0.12
2023-04-16T04:17:41.931Z,0.16
2023-04-16T04:18:43.312Z,0.19
2023-04-16T04:19:54.273Z,0.21
2023-04-16T04:20:41.777Z,0.24
2023-04-16T04:21:42.028Z,0.29
2023-04-16T04:22:41.361Z,0.28
2023-04-16T04:23:40.606Z,0.31
2023-04-16T04:24:40.941Z,0.32
2023-04-16T04:25:41.183Z,0.39
2023-04-16T04:26:41.511Z,0.39
2023-04-16T04:27:40.752Z,0.45
2023-04-16T04:28:41.066Z,0.52
2023-04-16T04:29:41.530Z,0.65
2023-04-16T04:30:40.619Z,0.72
2023-04-16T04:31:41.057Z,0.77
2023-04-16T04:32:41.268Z,0.84
2023-04-16T04:33:41.451Z,0.95
2023-04-16T04:34:40.816Z,1.02
2023-04-16T04:35:41.141Z,1.16
2023-04-16T04:36:40.367Z,1.25
2023-04-16T04:37:40.658Z,1.29
2023-04-16T04:38:40.969Z,1.42
2023-04-16T04:39:41.286Z,1.57
2023-04-16T04:40:40.532Z,1.74
2023-04-16T04:41:40.899Z,1.84
2023-04-16T04:42:41.114Z,1.95
2023-04-16T04:43:40.371Z,2.16
2023-04-16T04:44:40.820Z,2.41
2023-04-16T04:45:40.988Z,2.54
2023-04-16T04:46:41.273Z,2.69
2023-04-16T04:47:40.581Z,3.16
2023-04-16T04:48:40.809Z,3.51
2023-04-16T04:49:42.096Z,3.38
2023-04-16T04:50:41.390Z,3.90
2023-04-16T04:51:40.725Z,3.98
2023-04-16T04:52:41.032Z,4.48
2023-04-16T04:53:40.288Z,5.06
2023-04-16T04:54:40.616Z,5.38
2023-04-16T04:55:40.891Z,6.05
2023-04-16T04:56:41.105Z,6.69
2023-04-16T04:57:40.494Z,6.61
2023-04-16T04:58:40.733Z,6.61
2023-04-16T04:59:41.031Z,6.68
2023-04-16T05:00:40.309Z,6.99
2023-04-16T05:01:40.580Z,7.69
2023-04-16T05:02:40.960Z,7.79
2023-04-16T05:03:40.254Z,7.79
2023-04-16T05:04:40.379Z,8.01
2023-04-16T05:05:40.654Z,7.90
2023-04-16T05:06:41.899Z,8.71
2023-04-16T05:07:40.156Z,10.10
2023-04-16T05:08:40.525Z,11.01
2023-04-16T05:09:40.741Z,12.01
2023-04-16T05:10:39.972Z,12.05
2023-04-16T05:11:40.233Z,12.89
2023-04-16T05:12:40.545Z,14.00
2023-04-16T05:13:40.823Z,16.35
2023-04-16T05:14:40.061Z,15.38
2023-04-16T05:15:40.381Z,15.31
2023-04-16T05:16:40.684Z,15.73
2023-04-16T05:17:39.925Z,16.50
2023-04-16T05:18:40.197Z,16.04
2023-04-16T05:19:40.544Z,15.59
2023-04-16T05:20:40.757Z,15.04
2023-04-16T05:21:40.049Z,14.13
2023-04-16T05:22:40.306Z,14.26
2023-04-16T05:23:40.596Z,14.70
2023-04-16T05:24:40.773Z,15.81
2023-04-16T05:25:40.160Z,15.99
2023-04-16T05:26:40.442Z,16.17
2023-04-16T05:27:39.648Z,16.24
2023-04-16T05:28:39.945Z,16.30
2023-04-16T05:29:40.222Z,17.16
2023-04-16T05:30:40.668Z,17.58
2023-04-16T05:31:39.743Z,17.58
2023-04-16T05:32:40.118Z,18.38
2023-04-16T05:33:40.337Z,19.16
2023-04-16T05:34:39.563Z,20.20
2023-04-16T05:35:39.852Z,20.93
2023-04-16T05:36:40.165Z,21.08
2023-04-16T05:37:40.420Z,20.95
2023-04-16T05:38:39.680Z,21.50
2023-04-16T05:39:39.918Z,22.18
2023-04-16T05:40:40.199Z,22.47
2023-04-16T05:41:40.547Z,22.81
2023-04-16T05:42:39.695Z,21.34
2023-04-16T05:43:39.988Z,20.91
2023-04-16T05:44:40.254Z,20.56
2023-04-16T05:45:39.480Z,20.47
2023-04-16T05:46:39.796Z,21.59
2023-04-16T05:47:40.281Z,23.55
2023-04-16T05:48:40.350Z,23.82
2023-04-16T05:49:39.578Z,26.69
2023-04-16T05:50:39.843Z,31.11
2023-04-16T05:51:40.087Z,32.49
2023-04-16T05:52:39.381Z,32.69
2023-04-16T05:53:40.135Z,31.28
2023-04-16T05:54:39.899Z,30.96
2023-04-16T05:55:40.198Z,33.69
2023-04-16T05:56:39.390Z,35.10
2023-04-16T05:57:39.648Z,31.61
2023-04-16T05:58:40.905Z,29.29
2023-04-16T05:59:40.260Z,28.05
2023-04-16T06:00:40.371Z,27.23
2023-04-16T06:01:39.675Z,25.14
2023-04-16T06:02:40.072Z,22.48
2023-04-16T06:03:39.276Z,19.77
2023-04-16T06:04:39.481Z,17.65
2023-04-16T06:05:39.925Z,18.36
2023-04-16T06:06:40.054Z,17.98
2023-04-16T06:07:39.277Z,18.21
2023-04-16T06:08:39.524Z,18.53
2023-04-16T06:09:39.829Z,19.09
2023-04-16T06:10:39.059Z,19.46
2023-04-16T06:11:39.400Z,22.54
2023-04-16T06:12:39.612Z,31.98
2023-04-16T06:13:40.863Z,42.41
2023-04-16T06:14:40.080Z,45.74
2023-04-16T06:15:39.426Z,38.56
2023-04-16T06:16:39.709Z,36.66
2023-04-16T06:17:40.127Z,34.35
2023-04-16T06:18:40.208Z,34.05
2023-04-16T06:19:39.503Z,33.00
2023-04-16T06:20:39.783Z,33.44
2023-04-16T06:21:39.058Z,32.90
2023-04-16T06:22:39.680Z,32.87
2023-04-16T06:23:40.585Z,30.73
2023-04-16T06:24:39.861Z,31.98
2023-04-16T06:25:40.073Z,34.54
2023-04-16T06:26:40.370Z,35.71
2023-04-16T06:27:39.743Z,36.90
2023-04-16T06:28:38.972Z,43.32
2023-04-16T06:29:41.583Z,44.39
2023-04-16T06:30:39.483Z,44.11
2023-04-16T06:31:39.778Z,50.52
2023-04-16T06:32:39.992Z,57.30
2023-04-16T06:33:39.318Z,51.95
2023-04-16T06:34:39.585Z,43.92
2023-04-16T06:35:38.794Z,41.70
2023-04-16T06:36:39.070Z,44.40
2023-04-16T06:37:39.379Z,42.42
2023-04-16T06:38:39.663Z,45.27
2023-04-16T06:39:38.906Z,47.13
2023-04-16T06:40:39.163Z,46.75
2023-04-16T06:41:39.400Z,46.95
2023-04-16T06:42:39.678Z,46.18
2023-04-16T06:43:38.938Z,44.36
2023-04-16T06:44:39.198Z,45.66
2023-04-16T06:45:39.447Z,44.29
2023-04-16T06:46:38.707Z,47.02
2023-04-16T06:47:38.983Z,45.12
2023-04-16T06:48:39.349Z,41.34
2023-04-16T06:49:39.537Z,40.94
2023-04-16T06:50:38.756Z,38.38
2023-04-16T06:51:39.062Z,39.63
2023-04-16T06:52:39.312Z,44.34
2023-04-16T06:53:38.559Z,47.40
2023-04-16T06:54:39.787Z,50.48
2023-04-16T06:55:39.237Z,56.19
2023-04-16T06:56:39.342Z,49.82
2023-04-16T06:57:38.611Z,42.63
2023-04-16T06:58:38.867Z,42.34
2023-04-16T06:59:39.090Z,42.59
2023-04-16T07:00:39.427Z,47.20
2023-04-16T07:01:38.619Z,52.75
2023-04-16T07:02:39.019Z,57.27
2023-04-16T07:03:40.346Z,56.81
2023-04-16T07:04:38.398Z,64.38
2023-04-16T07:05:38.729Z,70.08
2023-04-16T07:06:39.378Z,71.24
2023-04-16T07:07:39.237Z,68.92
2023-04-16T07:08:38.541Z,64.93
2023-04-16T07:09:38.733Z,65.32
2023-04-16T07:10:39.017Z,69.66
2023-04-16T07:11:39.286Z,68.40
2023-04-16T07:12:38.544Z,67.44
2023-04-16T07:13:38.749Z,67.55
2023-04-16T07:14:39.029Z,68.77
2023-04-16T07:15:38.251Z,67.89
2023-04-16T07:16:38.609Z,67.80
2023-04-16T07:17:38.800Z,67.36
2023-04-16T07:18:39.057Z,63.06
2023-04-16T07:19:38.304Z,61.43
2023-04-16T07:20:39.488Z,62.54
2023-04-16T07:21:38.795Z,64.60
2023-04-16T07:22:39.132Z,68.53
2023-04-16T07:23:38.306Z,76.39
2023-04-16T07:24:38.557Z,84.79
2023-04-16T07:25:38.832Z,87.16
2023-04-16T07:26:38.082Z,82.75
2023-04-16T07:27:38.373Z,82.35
2023-04-16T07:28:38.644Z,82.57
2023-04-16T07:29:38.862Z,89.69
2023-04-16T07:30:38.074Z,91.26
2023-04-16T07:31:38.453Z,88.41
2023-04-16T07:32:38.662Z,93.24
2023-04-16T07:33:38.805Z,92.14
2023-04-16T07:34:38.028Z,95.38
2023-04-16T07:35:38.255Z,94.17
2023-04-16T07:36:38.497Z,90.72
2023-04-16T07:37:38.799Z,93.46
2023-04-16T07:38:37.996Z,96.49
2023-04-16T07:39:38.313Z,98.26
2023-04-16T07:40:38.610Z,99.50
2023-04-16T07:41:38.841Z,96.32
2023-04-16T07:42:38.019Z,101.31
2023-04-16T07:43:38.358Z,95.71
2023-04-16T07:44:38.587Z,100.22
2023-04-16T07:45:39.603Z,99.94
2023-04-16T07:46:46.241Z,100.40
2023-04-16T07:47:39.403Z,107.94
2023-04-16T07:48:38.604Z,112.78
2023-04-16T07:49:37.824Z,110.04
2023-04-16T07:50:38.186Z,110.79
2023-04-16T07:51:39.360Z,117.88
2023-04-16T07:52:39.559Z,123.07
2023-04-16T07:53:38.824Z,109.00
2023-04-16T07:54:39.054Z,98.55
2023-04-16T07:55:38.414Z,94.97
2023-04-16T07:56:38.659Z,104.31
2023-04-16T07:57:37.856Z,105.81
2023-04-16T07:58:38.135Z,113.04
2023-04-16T07:59:38.379Z,124.58
2023-04-16T08:00:37.696Z,128.05
2023-04-16T08:01:37.925Z,135.22
2023-04-16T08:02:38.388Z,131.92
2023-04-16T08:03:38.624Z,133.23
2023-04-16T08:04:37.857Z,139.87
2023-04-16T08:05:37.843Z,144.86
2023-04-16T08:06:38.119Z,155.53
2023-04-16T08:07:38.416Z,154.27
2023-04-16T08:08:37.626Z,140.94
2023-04-16T08:09:37.894Z,134.12
2023-04-16T08:10:38.178Z,134.06
2023-04-16T08:11:39.145Z,127.68
2023-04-16T08:12:37.681Z,133.91
2023-04-16T08:13:38.906Z,131.30
2023-04-16T08:14:39.139Z,140.00
2023-04-16T08:15:37.502Z,151.54
2023-04-16T08:16:38.664Z,158.54
2023-04-16T08:17:38.184Z,163.09
2023-04-16T08:18:38.261Z,170.08
2023-04-16T08:19:37.502Z,193.79
2023-04-16T08:20:37.713Z,208.34
2023-04-16T08:21:38.040Z,223.58
2023-04-16T08:22:38.268Z,236.10
2023-04-16T08:23:37.475Z,250.34
2023-04-16T08:24:37.727Z,241.18
2023-04-16T08:25:37.991Z,218.25
2023-04-16T08:26:38.255Z,193.08
2023-04-16T08:27:37.548Z,198.46
2023-04-16T08:28:37.781Z,176.11
2023-04-16T08:29:38.013Z,168.67
2023-04-16T08:30:37.274Z,166.75
2023-04-16T08:31:38.595Z,173.80
2023-04-16T08:32:37.863Z,144.73
2023-04-16T08:33:38.088Z,130.27
2023-04-16T08:34:37.300Z,128.01
2023-04-16T08:35:37.558Z,126.99
2023-04-16T08:36:37.833Z,121.52
2023-04-16T08:37:38.087Z,115.20
2023-04-16T08:38:37.325Z,111.16
2023-04-16T08:39:37.625Z,109.55
2023-04-16T08:40:37.843Z,116.86
2023-04-16T08:41:37.065Z,131.85
2023-04-16T08:42:37.335Z,133.08
2023-04-16T08:43:38.628Z,126.32
2023-04-16T08:44:37.880Z,129.61
2023-04-16T08:45:38.155Z,132.71
2023-04-16T08:46:37.484Z,135.12
2023-04-16T08:47:37.741Z,136.88
2023-04-16T08:48:37.926Z,140.55
2023-04-16T08:49:37.172Z,134.62
2023-04-16T08:50:37.461Z,129.10
2023-04-16T08:51:37.681Z,133.87
2023-04-16T08:52:36.910Z,140.55
2023-04-16T08:53:37.177Z,159.15
2023-04-16T08:54:37.396Z,165.72
2023-04-16T08:55:37.699Z,161.50
2023-04-16T08:56:36.939Z,165.29
2023-04-16T08:57:37.150Z,168.10
2023-04-16T08:58:37.392Z,184.84
2023-04-16T08:59:37.681Z,202.25
2023-04-16T09:00:36.857Z,228.07
2023-04-16T09:01:37.176Z,252.68
2023-04-16T09:02:37.580Z,268.32
2023-04-16T09:03:37.828Z,339.97
2023-04-16T09:04:36.878Z,380.03
2023-04-16T09:05:37.102Z,388.65
2023-04-16T09:06:37.377Z,372.83
2023-04-16T09:07:38.591Z,356.74
2023-04-16T09:08:36.798Z,359.39
2023-04-16T09:09:38.021Z,372.52
2023-04-16T09:10:38.309Z,350.34
2023-04-16T09:11:37.582Z,327.43
2023-04-16T09:12:37.885Z,367.28
2023-04-16T09:13:37.098Z,369.29
2023-04-16T09:14:37.337Z,353.10
2023-04-16T09:15:37.668Z,362.45
2023-04-16T09:16:36.893Z,366.08
2023-04-16T09:17:37.269Z,332.99
2023-04-16T09:18:37.375Z,312.17
2023-04-16T09:19:38.615Z,297.65
2023-04-16T09:20:36.905Z,290.10
2023-04-16T09:21:37.187Z,274.13
2023-04-16T09:22:37.461Z,279.51
2023-04-16T09:23:36.632Z,286.85
2023-04-16T09:24:36.935Z,314.05
2023-04-16T09:25:37.160Z,355.60
2023-04-16T09:26:37.395Z,325.82
2023-04-16T09:27:36.661Z,317.79
2023-04-16T09:28:37.336Z,327.09
2023-04-16T09:29:37.194Z,303.24
2023-04-16T09:30:36.444Z,280.10
2023-04-16T09:31:36.680Z,292.42
2023-04-16T09:32:36.947Z,351.66
2023-04-16T09:33:37.173Z,324.41
2023-04-16T09:34:36.392Z,292.29
2023-04-16T09:35:37.636Z,292.73
2023-04-16T09:36:37.812Z,308.87
2023-04-16T09:37:38.102Z,293.70
2023-04-16T09:38:37.261Z,293.20
2023-04-16T09:39:36.556Z,293.83
2023-04-16T09:40:36.841Z,272.59
2023-04-16T09:41:37.102Z,252.10
2023-04-16T09:42:36.317Z,225.88
2023-04-16T09:43:36.605Z,245.76
2023-04-16T09:44:36.865Z,284.50
2023-04-16T09:45:37.186Z,291.82
2023-04-16T09:46:36.402Z,301.47
2023-04-16T09:47:36.663Z,353.13
2023-04-16T09:48:37.011Z,380.55
2023-04-16T09:49:36.157Z,409.35
2023-04-16T09:50:36.449Z,411.17
2023-04-16T09:51:37.716Z,405.51
2023-04-16T09:52:37.011Z,396.04
2023-04-16T09:53:37.188Z,380.27
2023-04-16T09:54:36.466Z,366.83
2023-04-16T09:55:36.754Z,359.22
2023-04-16T09:56:37.073Z,352.37
2023-04-16T09:57:36.235Z,347.14
2023-04-16T09:58:36.494Z,326.89
2023-04-16T09:59:36.797Z,312.69
2023-04-16T10:00:43.600Z,297.94
2023-04-16T10:01:37.319Z,292.94
2023-04-16T10:02:37.431Z,286.75
2023-04-16T10:03:37.127Z,274.26
2023-04-16T10:04:36.923Z,259.94
2023-04-16T10:05:36.116Z,247.90
2023-04-16T10:06:37.385Z,245.25
2023-04-16T10:07:36.881Z,242.37
2023-04-16T10:08:37.813Z,238.52
2023-04-16T10:09:37.073Z,240.00
2023-04-16T10:10:37.290Z,242.08
2023-04-16T10:11:37.553Z,236.16
2023-04-16T10:12:36.846Z,239.82
2023-04-16T10:13:36.081Z,263.29
2023-04-16T10:14:37.279Z,298.25
2023-04-16T10:15:37.495Z,319.53
2023-04-16T10:16:36.790Z,338.33
2023-04-16T10:17:36.058Z,368.95
2023-04-16T10:18:36.273Z,445.80
2023-04-16T10:19:37.411Z,480.59
2023-04-16T10:20:37.673Z,450.37
2023-04-16T10:21:35.894Z,388.64
2023-04-16T10:22:36.203Z,323.25
2023-04-16T10:23:36.436Z,301.79
2023-04-16T10:24:37.608Z,300.12
2023-04-16T10:25:36.815Z,293.95
2023-04-16T10:26:37.098Z,286.72
2023-04-16T10:27:36.416Z,275.58
2023-04-16T10:28:36.644Z,273.88
2023-04-16T10:29:35.875Z,272.52
2023-04-16T10:30:36.120Z,269.45
2023-04-16T10:31:36.396Z,263.19
2023-04-16T10:32:35.669Z,260.59
2023-04-16T10:33:35.842Z,268.08
2023-04-16T10:34:36.478Z,261.58
2023-04-16T10:35:37.334Z,254.28
2023-04-16T10:36:36.554Z,261.44
2023-04-16T10:37:35.822Z,261.54
2023-04-16T10:38:36.064Z,257.65
2023-04-16T10:39:37.326Z,259.46
2023-04-16T10:40:35.613Z,261.76
2023-04-16T10:41:35.789Z,264.75
2023-04-16T10:42:36.992Z,272.61
2023-04-16T10:43:36.304Z,284.42
2023-04-16T10:44:36.466Z,300.72
2023-04-16T10:45:35.816Z,306.52
2023-04-16T10:46:36.037Z,311.50
2023-04-16T10:47:36.228Z,313.16
2023-04-16T10:48:46.518Z,310.05
2023-04-16T10:49:36.637Z,303.28
2023-04-16T10:50:35.929Z,294.67
2023-04-16T10:51:36.182Z,288.54
2023-04-16T10:52:35.369Z,287.44
2023-04-16T10:53:35.634Z,290.80
2023-04-16T10:54:35.878Z,292.42
2023-04-16T10:55:36.119Z,278.93
2023-04-16T10:56:35.347Z,264.23
2023-04-16T10:57:35.652Z,259.56
2023-04-16T10:58:36.800Z,263.00
2023-04-16T10:59:36.085Z,261.71
2023-04-16T11:00:36.261Z,254.07
2023-04-16T11:01:35.593Z,243.45
2023-04-16T11:02:36.025Z,231.32
2023-04-16T11:03:36.164Z,226.37
2023-04-16T11:04:35.398Z,224.79
2023-04-16T11:05:35.491Z,231.93
2023-04-16T11:06:36.702Z,243.57
2023-04-16T11:07:36.948Z,253.58
2023-04-16T11:08:44.247Z,265.25
2023-04-16T11:09:36.444Z,264.54
2023-04-16T11:10:35.680Z,263.79
2023-04-16T11:11:35.920Z,275.32
2023-04-16T11:12:35.146Z,298.85
2023-04-16T11:13:35.477Z,310.93
2023-04-16T11:14:35.624Z,312.26
2023-04-16T11:15:35.880Z,319.82
2023-04-16T11:16:36.076Z,337.43
2023-04-16T11:17:36.350Z,376.51
2023-04-16T11:18:35.620Z,392.05
2023-04-16T11:19:36.857Z,408.16
2023-04-16T11:20:36.013Z,441.07
2023-04-16T11:21:35.328Z,467.98
2023-04-16T11:22:35.534Z,464.83
2023-04-16T11:23:35.770Z,462.64
2023-04-16T11:24:34.988Z,472.99
2023-04-16T11:25:35.173Z,473.00
2023-04-16T11:26:35.455Z,457.45
2023-04-16T11:27:36.592Z,431.66
2023-04-16T11:28:35.813Z,419.16
2023-04-16T11:29:35.082Z,429.33
2023-04-16T11:30:35.330Z,449.67
2023-04-16T11:31:35.570Z,444.15
2023-04-16T11:32:35.876Z,427.33
2023-04-16T11:33:35.013Z,421.61
2023-04-16T11:34:35.210Z,418.07
2023-04-16T11:35:35.463Z,423.55
2023-04-16T11:36:35.688Z,462.46
2023-04-16T11:37:35.822Z,446.69
2023-04-16T11:38:35.090Z,393.85
2023-04-16T11:39:35.319Z,358.82
2023-04-16T11:40:35.649Z,317.67
2023-04-16T11:41:35.693Z,289.26
2023-04-16T11:42:35.008Z,253.65
2023-04-16T11:43:35.214Z,230.29
2023-04-16T11:44:35.472Z,214.33
2023-04-16T11:45:35.643Z,203.12
2023-04-16T11:46:34.957Z,199.48
2023-04-16T11:47:35.306Z,201.67
2023-04-16T11:48:36.362Z,199.17
2023-04-16T11:49:35.574Z,194.91
2023-04-16T11:50:35.774Z,192.24
2023-04-16T11:51:35.092Z,195.18
2023-04-16T11:52:35.329Z,204.50
2023-04-16T11:53:34.487Z,221.01
2023-04-16T11:54:34.749Z,250.09
2023-04-16T11:55:34.970Z,273.58
2023-04-16T11:56:35.239Z,283.60
2023-04-16T11:57:35.474Z,292.52
2023-04-16T11:58:34.654Z,308.58
2023-04-16T11:59:35.858Z,327.74
2023-04-16T12:00:36.118Z,337.40
2023-04-16T12:01:35.490Z,340.73
2023-04-16T12:02:34.674Z,344.38
2023-04-16T12:03:34.940Z,347.64
2023-04-16T12:04:35.073Z,377.23
2023-04-16T12:05:35.253Z,416.46
2023-04-16T12:06:34.454Z,477.04
2023-04-16T12:07:34.694Z,527.12
2023-04-16T12:08:35.844Z,548.42
2023-04-16T12:09:37.153Z,552.90
2023-04-16T12:10:35.329Z,546.17
2023-04-16T12:11:36.551Z,553.15
2023-04-16T12:12:34.808Z,573.53
2023-04-16T12:13:35.046Z,597.16
2023-04-16T12:14:36.236Z,617.10
2023-04-16T12:15:34.450Z,623.98
2023-04-16T12:16:35.835Z,626.32
2023-04-16T12:17:34.897Z,635.16
2023-04-16T12:18:35.372Z,637.72
2023-04-16T12:19:34.252Z,635.46
2023-04-16T12:20:34.469Z,603.21
2023-04-16T12:21:34.664Z,552.69
2023-04-16T12:22:36.750Z,507.03
2023-04-16T12:23:35.079Z,476.04
2023-04-16T12:24:34.282Z,459.82
2023-04-16T12:25:34.459Z,461.21
2023-04-16T12:26:34.664Z,469.17
2023-04-16T12:27:34.889Z,477.64
2023-04-16T12:28:34.108Z,486.29
2023-04-16T12:29:34.305Z,495.67
2023-04-16T12:30:34.556Z,503.52
2023-04-16T12:31:34.733Z,503.85
2023-04-16T12:32:34.962Z,503.86
2023-04-16T12:33:34.111Z,507.75
2023-04-16T12:34:49.186Z,509.73
2023-04-16T12:35:35.629Z,511.30
2023-04-16T12:36:34.715Z,521.76
2023-04-16T12:37:34.918Z,545.45
2023-04-16T12:38:34.124Z,572.13
2023-04-16T12:39:34.331Z,590.84
2023-04-16T12:40:34.524Z,599.36
2023-04-16T12:41:34.790Z,604.04
2023-04-16T12:42:33.939Z,600.73
2023-04-16T12:43:34.151Z,595.06
2023-04-16T12:44:34.325Z,578.20
2023-04-16T12:45:34.530Z,569.25
2023-04-16T12:46:34.790Z,550.79
2023-04-16T12:47:34.055Z,511.48
2023-04-16T12:48:34.152Z,475.74
2023-04-16T12:49:34.356Z,443.26
2023-04-16T12:50:35.555Z,407.36
2023-04-16T12:51:34.745Z,376.87
2023-04-16T12:52:34.014Z,365.19
2023-04-16T12:53:34.276Z,367.41
2023-04-16T12:54:35.457Z,384.40
2023-04-16T12:55:35.596Z,409.13